Time;durP1;ratioP1;P1;durP2;ratioP2;P2;SDS_P1;SDS_P2;PMS_P1;PMS_P2;Temp;Humidity;BMP_temperature;BMP_pressure;BME280_temperature;BME280_humidity;BME280_pressure;Samples;Min_cycle;Max_cycle;Signal;HPM_P1;HPM_P2
2023/07/25 00:01:59;;;;;;;;;24.00;24.00;;;;;29.24;38.73;95862.16;117810;1179;35996;-69
2023/07/25 00:04:27;;;;;;;;;20.00;20.00;;;;;29.21;38.66;95852.78;117830;1178;36025;-70
2023/07/25 00:06:55;;;;;;;;;26.00;24.00;;;;;29.17;38.60;95848.60;117855;1180;35945;-70
2023/07/25 00:09:23;;;;;;;;;27.50;23.50;;;;;29.18;38.85;95854.88;117856;1180;36193;-67
2023/07/25 00:11:51;;;;;;;;;22.67;21.67;;;;;29.19;38.78;95851.83;117822;1178;36058;-62
2023/07/25 00:14:19;;;;;;;;;22.50;20.50;;;;;29.17;38.68;95845.23;117777;1181;35398;-62
2023/07/25 00:16:47;;;;;;;;;25.67;24.67;;;;;29.16;38.86;95844.25;117806;1179;35995;-63
2023/07/25 00:19:15;;;;;;;;;28.33;28.00;;;;;29.16;38.99;95849.29;117774;1179;35555;-62
2023/07/25 00:21:43;;;;;;;;;24.50;24.50;;;;;29.17;38.77;95845.23;117819;1180;36176;-62
2023/07/25 00:24:11;;;;;;;;;28.33;26.67;;;;;29.17;38.91;95834.45;117812;1180;36291;-64
2023/07/25 00:26:39;;;;;;;;;28.00;25.00;;;;;29.14;38.84;95834.58;117803;1179;36187;-63
2023/07/25 00:29:06;;;;;;;;;21.67;21.67;;;;;29.13;38.98;95828.69;117866;1179;37009;-70
2023/07/25 00:31:34;;;;;;;;;22.67;21.00;;;;;29.14;38.95;95815.01;117845;1179;36646;-70
2023/07/25 00:34:04;;;;;;;;;25.33;23.33;;;;;29.12;38.97;95814.46;117892;1179;36547;-68
2023/07/25 00:36:32;;;;;;;;;25.00;25.00;;;;;29.09;39.08;95824.57;117859;1180;35654;-62
2023/07/25 00:39:00;;;;;;;;;25.67;25.67;;;;;29.09;39.00;95824.41;117885;1180;36443;-71
2023/07/25 00:41:28;;;;;;;;;24.00;23.00;;;;;29.10;38.88;95815.53;117897;1180;36060;-69
2023/07/25 00:43:58;;;;;;;;;21.00;21.00;;;;;29.08;39.05;95825.19;117911;1179;36192;-66
2023/07/25 00:46:26;;;;;;;;;23.00;23.00;;;;;29.06;39.21;95827.84;117839;1180;35875;-62
2023/07/25 00:48:54;;;;;;;;;26.67;26.67;;;;;29.07;39.05;95815.90;117868;1180;35842;-62
2023/07/25 00:51:22;;;;;;;;;26.33;24.00;;;;;29.07;39.15;95822.52;117890;1179;36977;-67
2023/07/25 00:53:51;;;;;;;;;22.33;22.33;;;;;29.07;39.05;95825.02;117839;1178;37008;-65
2023/07/25 00:56:19;;;;;;;;;24.33;23.67;;;;;29.03;39.14;95815.80;117834;1179;35981;-61
2023/07/25 00:58:47;;;;;;;;;24.67;24.67;;;;;29.03;39.10;95803.55;118094;1179;35537;-62
2023/07/25 01:01:15;;;;;;;;;23.67;23.67;;;;;29.06;39.11;95795.40;117912;1180;34414;-68
2023/07/25 01:03:43;;;;;;;;;27.67;25.33;;;;;29.05;39.26;95794.75;117836;1180;35083;-68
2023/07/25 01:06:13;;;;;;;;;29.33;26.67;;;;;29.02;39.20;95794.98;117828;1179;36249;-63
2023/07/25 01:08:52;;;;;;;;;19.33;18.67;;;;;29.01;39.37;95794.17;117831;1179;35921;-65
2023/07/25 01:11:22;;;;;;;;;33.33;30.33;;;;;29.04;39.14;95792.39;117807;1179;36321;-69
2023/07/25 01:13:50;;;;;;;;;31.00;31.00;;;;;29.06;39.15;95794.60;117817;1179;36017;-66
2023/07/25 01:16:22;;;;;;;;;26.33;26.33;;;;;29.04;39.19;95795.69;117717;1179;35297;-62
2023/07/25 01:18:51;;;;;;;;;25.33;25.33;;;;;29.02;39.18;95797.18;117743;1188;36412;-64
2023/07/25 01:21:21;;;;;;;;;26.50;25.00;;;;;29.04;39.36;95809.67;117785;1178;35406;-65
2023/07/25 01:23:49;;;;;;;;;27.33;25.67;;;;;29.03;39.14;95838.36;117874;1179;36181;-63
2023/07/25 01:26:18;;;;;;;;;28.33;28.33;;;;;29.01;39.24;95861.21;117831;1181;35566;-62
2023/07/25 01:28:46;;;;;;;;;31.33;30.33;;;;;29.01;39.39;95845.11;118052;1179;36807;-63
2023/07/25 01:31:14;;;;;;;;;28.00;27.00;;;;;29.04;39.38;95836.00;117857;1179;36071;-65
2023/07/25 01:33:41;;;;;;;;;25.67;25.00;;;;;29.02;39.25;95853.06;117891;1179;36713;-63
2023/07/25 01:36:09;;;;;;;;;25.67;25.67;;;;;28.99;39.42;95856.16;117842;1179;35531;-62
2023/07/25 01:38:37;;;;;;;;;28.00;27.67;;;;;28.99;39.45;95839.52;117832;1179;35426;-62
2023/07/25 01:41:05;;;;;;;;;25.00;24.00;;;;;29.00;39.55;95817.98;117807;1180;35094;-62
2023/07/25 01:43:33;;;;;;;;;31.33;29.00;;;;;28.98;39.49;95845.88;117789;1180;35088;-64
2023/07/25 01:46:01;;;;;;;;;27.67;26.33;;;;;28.96;39.51;95845.47;117841;1178;36240;-63
2023/07/25 01:48:29;;;;;;;;;27.00;27.00;;;;;28.95;39.45;95838.92;117810;1181;36268;-62
2023/07/25 01:50:57;;;;;;;;;26.00;26.00;;;;;28.97;39.56;95808.06;117843;1178;35603;-63
2023/07/25 01:53:25;;;;;;;;;25.00;24.50;;;;;28.96;39.50;95806.95;117796;1179;35946;-61
2023/07/25 01:55:53;;;;;;;;;29.00;29.00;;;;;28.93;39.59;95823.73;117824;1180;35350;-62
2023/07/25 01:58:22;;;;;;;;;30.67;29.00;;;;;28.91;39.71;95816.48;117784;1179;34898;-61
2023/07/25 02:00:59;;;;;;;;;22.33;22.33;;;;;28.93;39.55;95818.69;117770;1179;35784;-61
2023/07/25 02:03:27;;;;;;;;;23.67;23.67;;;;;28.92;39.82;95838.09;117811;1179;36423;-66
2023/07/25 02:05:55;;;;;;;;;26.33;24.67;;;;;28.92;39.84;95854.44;117864;1182;35906;-62
2023/07/25 02:08:23;;;;;;;;;23.00;23.00;;;;;28.91;39.66;95882.70;117777;1180;35551;-68
2023/07/25 02:10:51;;;;;;;;;25.00;23.00;;;;;28.92;39.80;95916.73;117825;1180;35146;-63
2023/07/25 02:13:20;;;;;;;;;22.00;21.00;;;;;28.89;39.94;95939.42;117873;1178;35979;-64
2023/07/25 02:15:47;;;;;;;;;23.00;23.00;;;;;28.87;39.98;95960.93;117911;1180;36384;-63
2023/07/25 02:18:16;;;;;;;;;26.00;24.67;;;;;28.87;39.90;95955.67;117870;1179;36536;-66
2023/07/25 02:20:44;;;;;;;;;23.67;23.33;;;;;28.90;39.88;95951.45;117789;1179;35834;-67
2023/07/25 02:23:12;;;;;;;;;24.50;23.50;;;;;28.89;40.00;95939.19;117860;1179;36104;-64
2023/07/25 02:25:40;;;;;;;;;25.00;25.00;;;;;28.85;39.82;95931.52;117804;1191;36288;-64
2023/07/25 02:28:08;;;;;;;;;22.00;22.00;;;;;28.84;40.10;95910.62;117817;1180;35540;-66
2023/07/25 02:30:36;;;;;;;;;26.50;25.00;;;;;28.86;39.93;95896.58;117855;1180;35321;-70
2023/07/25 02:33:04;;;;;;;;;31.33;29.33;;;;;28.87;40.08;95877.02;117872;1178;35391;-68
2023/07/25 02:35:32;;;;;;;;;25.00;25.00;;;;;28.86;40.11;95864.05;117946;1180;35549;-67
2023/07/25 02:38:00;;;;;;;;;27.67;27.67;;;;;28.86;40.13;95849.98;117908;1179;37750;-66
2023/07/25 02:40:28;;;;;;;;;28.00;27.50;;;;;28.88;40.22;95844.27;117935;1182;36132;-62
2023/07/25 02:42:56;;;;;;;;;28.50;28.50;;;;;28.88;40.24;95846.23;117883;1179;36003;-63
2023/07/25 02:45:24;;;;;;;;;26.67;26.67;;;;;28.87;40.33;95831.14;117817;1179;35748;-64
2023/07/25 02:47:52;;;;;;;;;24.50;24.00;;;;;28.86;40.22;95823.44;117838;1180;36396;-66
2023/07/25 02:50:20;;;;;;;;;26.00;25.33;;;;;28.89;40.01;95809.00;117842;1179;35389;-62
2023/07/25 02:52:48;;;;;;;;;25.00;24.00;;;;;28.88;40.30;95809.47;117874;1179;36738;-61
2023/07/25 02:55:16;;;;;;;;;23.67;23.67;;;;;28.85;40.34;95801.42;117836;1178;36866;-64
2023/07/25 02:57:44;;;;;;;;;33.00;31.33;;;;;28.84;40.17;95795.84;117907;1179;35973;-64
2023/07/25 03:00:13;;;;;;;;;24.00;22.67;;;;;28.86;40.30;95795.00;117839;1179;37050;-64
2023/07/25 03:02:41;;;;;;;;;28.67;28.67;;;;;28.87;40.49;95791.86;117855;1191;35584;-63
2023/07/25 03:05:10;;;;;;;;;29.33;27.33;;;;;28.84;40.31;95790.42;117848;1180;35764;-70
2023/07/25 03:07:38;;;;;;;;;26.00;24.00;;;;;28.81;40.51;95795.96;117856;1186;35558;-69
2023/07/25 03:10:07;;;;;;;;;24.00;24.00;;;;;28.81;40.41;95799.66;117831;1192;36288;-68
2023/07/25 03:12:34;;;;;;;;;27.00;25.00;;;;;28.80;40.50;95792.51;117906;1179;36220;-70
2023/07/25 03:15:03;;;;;;;;;26.33;25.00;;;;;28.78;40.51;95789.75;117888;1179;35438;-63
2023/07/25 03:17:32;;;;;;;;;25.33;25.33;;;;;28.77;40.66;95798.63;117941;1180;35523;-64
2023/07/25 03:20:00;;;;;;;;;24.33;24.33;;;;;28.79;40.60;95794.55;117933;1179;34661;-69
2023/07/25 03:22:28;;;;;;;;;28.67;27.00;;;;;28.79;40.63;95791.33;117926;1179;35948;-70
2023/07/25 03:24:56;;;;;;;;;28.00;27.00;;;;;28.78;40.62;95795.41;117878;1179;34947;-70
2023/07/25 03:27:24;;;;;;;;;23.33;23.33;;;;;28.78;40.62;95794.08;117916;1179;35426;-66
2023/07/25 03:29:52;;;;;;;;;26.00;25.50;;;;;28.82;40.71;95790.48;117843;1180;36978;-66
2023/07/25 03:32:20;;;;;;;;;24.00;24.00;;;;;28.83;40.45;95796.23;117830;1178;35614;-68
2023/07/25 03:34:48;;;;;;;;;24.00;22.00;;;;;28.81;40.61;95812.15;117824;1180;35177;-63
2023/07/25 03:37:16;;;;;;;;;27.00;26.00;;;;;28.79;40.68;95817.65;117879;1178;36523;-66
2023/07/25 03:39:44;;;;;;;;;28.00;28.00;;;;;28.80;40.86;95817.58;117822;1180;34519;-68
2023/07/25 03:42:13;;;;;;;;;25.67;25.67;;;;;28.80;40.69;95832.11;117856;1179;35446;-68
2023/07/25 03:44:40;;;;;;;;;26.00;24.67;;;;;28.78;40.85;95847.41;117833;1179;35950;-63
2023/07/25 03:47:08;;;;;;;;;28.00;23.00;;;;;28.76;40.88;95864.36;117803;1180;36226;-69
2023/07/25 03:49:36;;;;;;;;;31.67;30.67;;;;;28.78;40.75;95869.80;117783;1180;36421;-71
2023/07/25 03:52:05;;;;;;;;;26.00;25.50;;;;;28.79;41.03;95888.81;117843;1181;34654;-68
2023/07/25 03:54:33;;;;;;;;;24.67;23.33;;;;;28.77;41.02;95906.23;117905;1179;36484;-67
2023/07/25 03:57:01;;;;;;;;;27.67;25.00;;;;;28.75;41.19;95957.35;117808;1180;36275;-68
2023/07/25 03:59:29;;;;;;;;;27.67;27.67;;;;;28.77;41.42;96095.02;117801;1179;36579;-71
2023/07/25 04:01:57;;;;;;;;;27.00;26.00;;;;;28.78;41.35;96132.98;117873;1179;36590;-70
2023/07/25 04:04:25;;;;;;;;;32.00;29.00;;;;;28.77;41.29;96113.94;117902;1179;36035;-69
2023/07/25 04:06:54;;;;;;;;;23.67;23.67;;;;;28.75;41.36;96084.69;117845;1179;36126;-70
2023/07/25 04:09:21;;;;;;;;;31.00;27.33;;;;;28.75;41.44;96109.05;117864;1179;35437;-67
2023/07/25 04:11:49;;;;;;;;;27.33;27.33;;;;;28.76;41.13;96094.92;117877;1179;36318;-65
2023/07/25 04:14:17;;;;;;;;;27.33;25.33;;;;;28.73;41.45;96058.68;117844;1180;35516;-67
2023/07/25 04:16:45;;;;;;;;;26.33;24.67;;;;;28.70;41.27;96023.20;117806;1179;36280;-69
2023/07/25 04:19:13;;;;;;;;;27.00;25.00;;;;;28.69;41.33;95954.70;117888;1180;35971;-69
2023/07/25 04:21:41;;;;;;;;;23.00;22.50;;;;;28.71;41.26;95886.63;117916;1181;36777;-70
2023/07/25 04:24:09;;;;;;;;;28.00;26.33;;;;;28.69;41.40;95921.48;117864;1180;36514;-70
2023/07/25 04:26:37;;;;;;;;;26.67;26.33;;;;;28.67;41.37;95967.09;117778;1179;35867;-61
2023/07/25 04:29:04;;;;;;;;;26.33;24.33;;;;;28.67;41.24;95971.41;117802;1179;35973;-62
2023/07/25 04:31:32;;;;;;;;;30.00;28.67;;;;;28.72;42.15;95962.59;117818;1178;35020;-70
2023/07/25 04:34:01;;;;;;;;;28.00;28.00;;;;;28.71;43.27;95938.63;117893;1180;36767;-70
2023/07/25 04:36:29;;;;;;;;;27.00;25.50;;;;;28.65;43.52;95912.55;117821;1179;36150;-62
2023/07/25 04:38:57;;;;;;;;;28.67;27.00;;;;;28.61;43.76;95891.23;117826;1179;35759;-65
2023/07/25 04:41:25;;;;;;;;;32.00;29.33;;;;;28.56;44.08;95858.91;117866;1180;36207;-68
2023/07/25 04:43:53;;;;;;;;;28.50;27.00;;;;;28.50;44.45;95819.60;117869;1180;34528;-66
2023/07/25 04:46:21;;;;;;;;;33.33;29.67;;;;;28.44;44.76;95800.95;117801;1179;36869;-59
2023/07/25 04:48:49;;;;;;;;;27.67;27.33;;;;;28.45;44.98;95806.61;117921;1180;35753;-61
2023/07/25 04:51:17;;;;;;;;;31.00;28.00;;;;;28.48;44.79;95801.68;117795;1179;36091;-65
2023/07/25 04:53:45;;;;;;;;;28.67;24.33;;;;;28.49;44.92;95811.27;117821;1179;35814;-61
2023/07/25 04:56:13;;;;;;;;;23.00;23.00;;;;;28.51;45.02;95813.17;117791;1179;35513;-63
2023/07/25 04:58:41;;;;;;;;;33.33;29.33;;;;;28.50;45.20;95815.36;117743;1187;36027;-60
2023/07/25 05:01:10;;;;;;;;;30.67;28.67;;;;;28.52;46.15;95823.85;117761;1179;35170;-68
2023/07/25 05:03:38;;;;;;;;;29.50;26.50;;;;;28.43;45.70;95835.64;117902;1178;35593;-66
2023/07/25 05:06:06;;;;;;;;;20.50;20.00;;;;;28.46;45.38;95856.00;117857;1179;37186;-63
2023/07/25 05:08:34;;;;;;;;;30.00;28.00;;;;;28.50;45.16;95875.44;117803;1179;36921;-69
2023/07/25 05:11:02;;;;;;;;;30.00;28.00;;;;;28.54;44.66;95886.00;117871;1180;36028;-70
2023/07/25 05:13:30;;;;;;;;;28.00;27.67;;;;;28.56;44.76;95881.45;117811;1179;36250;-63
2023/07/25 05:15:58;;;;;;;;;31.50;26.00;;;;;28.57;44.64;95872.20;117796;1180;35892;-72
2023/07/25 05:18:26;;;;;;;;;29.33;29.00;;;;;28.59;44.41;95856.49;117767;1180;35955;-66
2023/07/25 05:20:54;;;;;;;;;32.50;30.50;;;;;28.63;44.28;95847.75;117781;1179;35970;-63
2023/07/25 05:23:22;;;;;;;;;32.67;31.00;;;;;28.64;44.37;95838.73;117838;1179;35709;-61
2023/07/25 05:25:50;;;;;;;;;37.67;32.00;;;;;28.65;44.50;95837.01;117801;1179;34454;-68
2023/07/25 05:28:19;;;;;;;;;35.00;29.67;;;;;28.69;44.51;95822.89;117917;1179;37037;-62
2023/07/25 05:30:47;;;;;;;;;41.00;35.00;;;;;28.75;44.40;95811.49;117776;1179;36147;-64
2023/07/25 05:33:15;;;;;;;;;34.50;31.50;;;;;28.77;44.02;95809.70;117747;1179;35826;-64
2023/07/25 05:35:42;;;;;;;;;33.33;30.33;;;;;28.78;44.00;95814.98;117770;1179;34792;-64
2023/07/25 05:38:10;;;;;;;;;43.00;33.00;;;;;28.79;43.85;95820.56;117783;1184;35969;-63
2023/07/25 05:40:38;;;;;;;;;33.00;29.67;;;;;28.83;43.79;95830.09;117791;1179;35452;-72
2023/07/25 05:43:06;;;;;;;;;31.33;29.00;;;;;28.83;43.61;95828.99;117843;1179;36481;-73
2023/07/25 05:45:34;;;;;;;;;32.00;28.67;;;;;28.82;43.65;95832.27;117792;1180;36139;-69
2023/07/25 05:48:03;;;;;;;;;39.67;31.00;;;;;28.79;43.57;95831.55;117849;1179;35450;-70
2023/07/25 05:50:31;;;;;;;;;33.33;31.00;;;;;28.82;43.51;95829.30;117807;1179;35711;-71
2023/07/25 05:52:59;;;;;;;;;32.33;31.00;;;;;28.83;43.34;95813.20;117781;1179;35503;-72
2023/07/25 05:55:27;;;;;;;;;36.00;28.33;;;;;28.81;43.56;95804.36;117799;1180;35292;-69
2023/07/25 05:57:54;;;;;;;;;34.00;31.33;;;;;28.80;43.62;95799.11;117801;1178;35664;-70
2023/07/25 06:00:22;;;;;;;;;41.00;34.33;;;;;28.82;43.52;95800.39;117826;1179;35782;-66
2023/07/25 06:02:51;;;;;;;;;38.50;29.00;;;;;28.82;43.31;95801.88;117852;1179;35470;-67
2023/07/25 06:05:19;;;;;;;;;32.67;27.33;;;;;28.80;43.31;95806.50;117850;1179;36060;-72
2023/07/25 06:07:47;;;;;;;;;34.00;29.00;;;;;28.80;43.26;95806.97;117794;1178;35179;-63
2023/07/25 06:10:15;;;;;;;;;38.00;31.67;;;;;28.85;43.17;95801.04;117828;1179;35647;-68
2023/07/25 06:12:44;;;;;;;;;34.67;31.00;;;;;28.85;43.04;95799.14;117841;1179;36495;-68
2023/07/25 06:15:12;;;;;;;;;30.33;26.33;;;;;28.85;43.01;95804.17;117807;1179;36203;-71
2023/07/25 06:17:40;;;;;;;;;30.00;26.33;;;;;28.86;43.09;95800.58;117786;1179;35353;-64
2023/07/25 06:20:09;;;;;;;;;38.33;30.67;;;;;28.89;42.88;95791.23;117815;1180;35803;-69
2023/07/25 06:22:37;;;;;;;;;35.67;29.00;;;;;28.90;42.88;95783.63;117833;1180;35836;-72
2023/07/25 06:25:12;;;;;;;;;36.33;30.67;;;;;28.89;42.94;95782.52;117909;1179;35544;-72
2023/07/25 06:27:41;;;;;;;;;28.50;27.50;;;;;28.89;42.88;95774.83;117823;1180;36722;-68
2023/07/25 06:30:10;;;;;;;;;31.67;30.00;;;;;28.93;42.70;95768.41;117909;1179;36103;-72
2023/07/25 06:32:38;;;;;;;;;38.67;32.67;;;;;28.95;42.82;95773.39;117864;1178;36231;-72
2023/07/25 06:35:06;;;;;;;;;29.67;29.00;;;;;28.96;42.61;95760.44;117967;1179;36217;-72
2023/07/25 06:37:36;;;;;;;;;29.67;29.33;;;;;28.97;42.77;95753.21;117936;1178;37522;-68
2023/07/25 06:40:05;;;;;;;;;35.00;30.33;;;;;29.02;42.47;95745.30;117857;1179;36144;-72
2023/07/25 06:42:33;;;;;;;;;36.50;30.00;;;;;29.05;42.57;95749.25;117830;1180;36078;-72
2023/07/25 06:45:02;;;;;;;;;30.00;29.00;;;;;29.04;42.32;95754.36;117831;1179;36203;-73
2023/07/25 06:47:30;;;;;;;;;33.67;28.33;;;;;29.03;42.46;95755.85;117792;1179;35406;-71
2023/07/25 06:49:59;;;;;;;;;30.33;29.67;;;;;29.07;42.43;95744.40;117849;1179;36277;-70
2023/07/25 06:52:27;;;;;;;;;33.67;29.33;;;;;29.09;42.27;95745.27;117830;1179;36609;-71
2023/07/25 06:54:57;;;;;;;;;29.00;25.33;;;;;29.09;42.35;95741.65;117780;1180;35339;-69
2023/07/25 06:57:25;;;;;;;;;28.67;27.67;;;;;29.09;42.21;95748.41;117865;1179;36406;-72
2023/07/25 06:59:53;;;;;;;;;34.00;31.00;;;;;29.13;42.22;95751.27;117843;1180;35446;-70
2023/07/25 07:02:21;;;;;;;;;33.00;27.67;;;;;29.14;42.13;95743.10;117871;1179;34763;-70
2023/07/25 07:04:49;;;;;;;;;30.00;27.00;;;;;29.15;42.13;95744.83;117849;1180;36388;-64
2023/07/25 07:07:17;;;;;;;;;29.33;25.00;;;;;29.15;42.21;95745.14;117864;1178;35590;-67
2023/07/25 07:09:45;;;;;;;;;32.33;29.00;;;;;29.20;41.90;95748.48;117913;1179;35823;-70
2023/07/25 07:12:14;;;;;;;;;32.67;27.67;;;;;29.23;41.86;95748.33;117861;1190;37808;-67
2023/07/25 07:14:42;;;;;;;;;35.00;27.67;;;;;29.24;42.02;95745.51;117889;1178;36612;-67
2023/07/25 07:17:09;;;;;;;;;30.33;29.00;;;;;29.24;41.85;95745.19;117858;1178;37037;-68
2023/07/25 07:19:38;;;;;;;;;30.67;25.33;;;;;29.28;41.75;95750.23;117831;1180;34831;-66
2023/07/25 07:22:05;;;;;;;;;29.33;26.00;;;;;29.31;41.87;95750.56;117832;1179;36252;-66
2023/07/25 07:24:33;;;;;;;;;31.33;29.00;;;;;29.33;41.58;95751.60;117812;1178;35613;-69
2023/07/25 07:27:02;;;;;;;;;30.00;27.00;;;;;29.35;41.53;95747.77;117811;1179;36067;-72
2023/07/25 07:29:30;;;;;;;;;31.33;28.67;;;;;29.40;41.38;95750.05;117867;1179;36388;-68
2023/07/25 07:32:02;;;;;;;;;29.33;26.67;;;;;29.45;41.31;95752.13;117945;1178;36073;-72
2023/07/25 07:34:31;;;;;;;;;30.33;29.33;;;;;29.46;41.42;95752.91;117852;1179;35401;-68
2023/07/25 07:36:58;;;;;;;;;29.00;24.33;;;;;29.48;41.37;95748.91;117869;1180;36126;-72
2023/07/25 07:39:27;;;;;;;;;27.67;25.00;;;;;29.53;41.32;95740.36;117804;1180;36140;-67
2023/07/25 07:41:55;;;;;;;;;26.00;26.00;;;;;29.57;41.24;95744.89;117829;1180;36046;-69
2023/07/25 07:44:23;;;;;;;;;24.00;23.67;;;;;29.59;41.03;95743.64;117847;1179;36389;-69
2023/07/25 07:46:52;;;;;;;;;30.00;24.67;;;;;29.60;41.08;95743.80;117744;1180;35153;-66
2023/07/25 07:49:20;;;;;;;;;27.67;27.67;;;;;29.65;41.14;95744.44;117811;1179;34737;-68
2023/07/25 07:51:48;;;;;;;;;29.00;27.00;;;;;29.69;40.97;95736.11;117836;1179;35440;-63
2023/07/25 07:54:36;;;;;;;;;25.67;23.67;;;;;29.74;40.92;95729.75;117826;1180;35246;-70
2023/07/25 07:57:04;;;;;;;;;29.00;26.00;;;;;29.79;40.77;95727.17;117840;1179;36378;-70
2023/07/25 07:59:32;;;;;;;;;24.67;24.33;;;;;29.84;40.90;95724.42;117893;1179;35367;-70
2023/07/25 08:02:00;;;;;;;;;27.00;25.00;;;;;29.88;40.75;95721.13;117846;1179;36457;-72
2023/07/25 08:04:29;;;;;;;;;28.33;25.00;;;;;29.89;40.79;95720.73;117893;1179;35394;-67
2023/07/25 08:06:57;;;;;;;;;29.00;21.33;;;;;29.89;40.59;95717.19;117801;1178;36368;-69
2023/07/25 08:09:25;;;;;;;;;26.00;24.00;;;;;29.92;40.85;95714.13;117833;1180;36313;-68
2023/07/25 08:11:53;;;;;;;;;23.33;21.33;;;;;29.95;40.76;95705.88;117873;1179;36013;-70
2023/07/25 08:14:21;;;;;;;;;27.00;24.00;;;;;29.96;40.67;95702.73;117866;1179;36391;-69
2023/07/25 08:16:49;;;;;;;;;27.50;24.50;;;;;29.98;40.70;95696.98;117878;1179;35942;-64
2023/07/25 08:19:17;;;;;;;;;21.00;21.00;;;;;30.02;40.61;95688.09;117914;1179;36242;-64
2023/07/25 08:21:45;;;;;;;;;24.33;23.33;;;;;30.07;40.44;95686.52;117855;1179;36370;-64
2023/07/25 08:24:13;;;;;;;;;23.67;21.00;;;;;30.08;40.57;95682.98;117875;1180;36806;-69
2023/07/25 08:26:41;;;;;;;;;19.50;19.50;;;;;30.11;40.55;95678.74;117883;1180;35596;-65
2023/07/25 08:29:09;;;;;;;;;23.67;23.00;;;;;30.15;40.37;95682.06;117872;1179;35787;-71
2023/07/25 08:31:37;;;;;;;;;24.00;22.00;;;;;30.21;40.46;95670.34;117861;1179;35774;-71
2023/07/25 08:34:05;;;;;;;;;20.67;18.67;;;;;30.23;40.33;95674.36;117806;1180;36427;-72
2023/07/25 08:36:33;;;;;;;;;20.00;20.00;;;;;30.24;40.37;95671.21;117845;1178;36193;-61
2023/07/25 08:39:01;;;;;;;;;23.67;22.67;;;;;30.28;40.30;95664.52;117861;1179;36093;-72
2023/07/25 08:41:30;;;;;;;;;26.00;24.00;;;;;30.33;40.23;95657.73;117890;1180;35057;-69
2023/07/25 08:44:01;;;;;;;;;22.00;19.00;;;;;30.37;40.17;95658.36;117930;1180;36063;-72
2023/07/25 08:46:30;;;;;;;;;25.00;20.00;;;;;30.41;40.02;95657.02;117912;1180;35545;-63
2023/07/25 08:49:01;;;;;;;;;25.33;25.33;;;;;30.45;40.01;95650.55;117824;1179;36287;-71
2023/07/25 08:51:34;;;;;;;;;23.00;19.50;;;;;30.51;39.90;95652.20;117872;1179;36702;-72
2023/07/25 08:54:15;;;;;;;;;22.33;20.67;;;;;30.55;39.92;95649.27;117921;1179;36553;-65
2023/07/25 08:56:44;;;;;;;;;23.50;21.50;;;;;30.59;39.95;95649.42;117911;1179;35808;-64
2023/07/25 08:59:12;;;;;;;;;23.67;22.33;;;;;30.65;39.79;95651.62;117782;1179;36292;-65
2023/07/25 09:01:41;;;;;;;;;22.33;22.33;;;;;30.70;39.72;95653.11;117807;1179;36480;-64
2023/07/25 09:04:10;;;;;;;;;20.33;19.67;;;;;30.71;39.72;95652.18;117845;1179;36192;-72
2023/07/25 09:06:38;;;;;;;;;19.67;17.67;;;;;30.72;39.63;95645.96;117859;1179;35343;-63
2023/07/25 09:09:07;;;;;;;;;20.50;20.50;;;;;30.76;39.66;95645.48;117886;1179;36272;-70
2023/07/25 09:11:35;;;;;;;;;19.00;19.00;;;;;30.81;39.61;95639.64;117880;1179;36288;-72
2023/07/25 09:14:03;;;;;;;;;17.67;17.67;;;;;30.84;39.59;95638.45;117901;1180;36545;-72
2023/07/25 09:16:32;;;;;;;;;24.67;22.33;;;;;30.84;39.51;95648.36;117774;1179;35893;-61
2023/07/25 09:19:00;;;;;;;;;19.33;17.67;;;;;30.88;39.57;95655.45;117744;1179;36001;-72
2023/07/25 09:21:28;;;;;;;;;18.33;17.67;;;;;30.92;39.40;95658.91;117785;1179;36523;-72
2023/07/25 09:23:58;;;;;;;;;18.33;18.33;;;;;30.95;39.40;95659.69;117810;1179;35907;-72
2023/07/25 09:26:31;;;;;;;;;22.67;21.33;;;;;30.97;39.46;95665.52;117872;1179;35719;-63
2023/07/25 09:29:00;;;;;;;;;20.00;20.00;;;;;31.02;39.35;95668.97;117849;1180;35428;-71
2023/07/25 09:31:29;;;;;;;;;19.00;17.00;;;;;31.06;39.25;95671.80;117870;1179;36571;-69
2023/07/25 09:33:57;;;;;;;;;16.67;14.67;;;;;31.10;39.17;95664.21;117806;1179;36879;-72
2023/07/25 09:36:30;;;;;;;;;19.67;18.67;;;;;31.12;39.17;95667.35;117861;1179;35414;-63
2023/07/25 09:38:59;;;;;;;;;19.33;18.33;;;;;31.16;39.11;95661.42;117867;1181;36198;-71
2023/07/25 09:41:27;;;;;;;;;18.67;15.67;;;;;31.22;39.07;95662.19;117876;1179;36420;-72
2023/07/25 09:44:02;;;;;;;;;17.33;17.33;;;;;31.23;39.03;95659.57;117846;1179;35453;-67
2023/07/25 09:46:30;;;;;;;;;21.00;18.00;;;;;31.26;38.89;95665.89;117880;1179;36988;-63
2023/07/25 09:48:58;;;;;;;;;20.00;19.00;;;;;31.31;38.97;95665.48;117884;1186;35896;-72
2023/07/25 09:51:26;;;;;;;;;19.67;17.67;;;;;31.36;38.85;95667.91;117849;1179;36177;-65
2023/07/25 09:53:58;;;;;;;;;24.67;19.67;;;;;31.38;38.86;95671.05;117834;1180;36308;-71
2023/07/25 09:56:26;;;;;;;;;19.33;17.67;;;;;31.40;38.99;95672.62;117870;1179;37308;-63
2023/07/25 09:58:54;;;;;;;;;18.00;17.50;;;;;31.43;38.70;95662.36;117797;1180;36154;-70
2023/07/25 10:01:25;;;;;;;;;17.67;16.67;;;;;31.47;38.82;95654.05;117879;1179;36250;-71
2023/07/25 10:03:54;;;;;;;;;18.00;17.00;;;;;31.50;38.91;95653.33;117871;1179;35590;-69
2023/07/25 10:06:22;;;;;;;;;19.33;17.00;;;;;31.51;38.79;95657.65;117793;1179;36761;-63
2023/07/25 10:08:50;;;;;;;;;17.00;17.00;;;;;31.54;38.66;95649.73;117817;1179;36634;-67
2023/07/25 10:11:18;;;;;;;;;18.00;18.00;;;;;31.60;38.80;95649.56;117819;1180;37054;-64
2023/07/25 10:13:50;;;;;;;;;16.00;15.50;;;;;31.62;38.65;95644.49;117829;1179;35722;-65
2023/07/25 10:16:20;;;;;;;;;16.00;15.00;;;;;31.64;38.63;95637.54;117839;1179;36518;-63
2023/07/25 10:18:55;;;;;;;;;18.00;15.00;;;;;31.67;38.63;95630.89;117837;1180;36266;-63
2023/07/25 10:21:27;;;;;;;;;19.33;16.33;;;;;31.72;38.60;95633.69;117835;1179;36508;-65
2023/07/25 10:24:02;;;;;;;;;14.33;14.33;;;;;31.74;38.24;95629.59;117779;1179;36037;-69
2023/07/25 10:26:30;;;;;;;;;14.00;14.00;;;;;31.74;38.48;95627.05;117879;1179;35553;-62
2023/07/25 10:29:01;;;;;;;;;18.00;16.00;;;;;31.76;38.49;95620.73;117798;1179;36614;-65
2023/07/25 10:31:35;;;;;;;;;16.50;14.50;;;;;31.81;38.56;95619.20;117843;1179;35808;-64
2023/07/25 10:34:04;;;;;;;;;16.67;16.67;;;;;31.82;38.47;95625.59;117853;1179;36746;-64
2023/07/25 10:36:32;;;;;;;;;16.67;16.67;;;;;31.83;38.39;95619.60;117850;1179;35799;-62
2023/07/25 10:39:06;;;;;;;;;17.50;16.00;;;;;31.87;38.37;95603.31;117773;1180;36321;-63
2023/07/25 10:41:34;;;;;;;;;17.67;15.00;;;;;31.89;38.36;95598.48;117931;1179;36619;-70
2023/07/25 10:44:04;;;;;;;;;18.00;18.00;;;;;31.89;38.46;95594.20;117870;1179;36294;-68
2023/07/25 10:46:33;;;;;;;;;15.67;14.67;;;;;31.88;38.32;95576.85;117827;1179;37220;-62
2023/07/25 10:49:04;;;;;;;;;18.00;17.00;;;;;31.89;38.38;95558.36;117812;1179;35645;-70
2023/07/25 10:51:51;;;;;;;;;17.50;16.00;;;;;31.93;38.40;95560.39;117846;1179;35724;-70
2023/07/25 10:54:22;;;;;;;;;15.00;14.00;;;;;31.94;38.40;95568.52;117892;1179;35569;-67
2023/07/25 10:57:08;;;;;;;;;14.33;14.33;;;;;31.94;38.33;95573.95;117885;1178;36760;-66
2023/07/25 11:00:04;;;;;;;;;14.33;14.00;;;;;31.99;38.23;95574.39;117865;1179;35023;-69
2023/07/25 11:02:33;;;;;;;;;13.00;13.00;;;;;32.02;38.17;95570.58;117886;1180;36221;-69
2023/07/25 11:05:13;;;;;;;;;18.00;16.00;;;;;32.03;38.24;95567.26;117876;1179;35987;-67
2023/07/25 11:07:44;;;;;;;;;14.33;14.00;;;;;32.03;38.36;95560.77;117839;1178;36361;-64
2023/07/25 11:10:28;;;;;;;;;15.00;14.00;;;;;32.06;38.22;95562.72;117773;1179;36226;-65
2023/07/25 11:12:58;;;;;;;;;16.67;16.00;;;;;32.06;38.35;95556.48;117888;1179;34740;-69
2023/07/25 11:15:29;;;;;;;;;15.50;15.00;;;;;32.05;38.26;95558.30;117895;1178;36261;-70
2023/07/25 11:18:13;;;;;;;;;12.00;11.67;;;;;32.09;38.40;95547.70;117869;1179;35805;-67